Time;durP1;ratioP1;P1;durP2;ratioP2;P2;SDS_P1;SDS_P2;PMS_P1;PMS_P2;Temp;Humidity;BMP_temperature;BMP_pressure;BME280_temperature;BME280_humidity;BME280_pressure;Samples;Min_cycle;Max_cycle;Signal;HPM_P1;HPM_P2
2022/11/25 00:01:52;;;;;;;1.73;1.53;;;;;;;5.17;100.00;96566.84;5062073;28;20218;-63
2022/11/25 00:04:19;;;;;;;2.17;1.93;;;;;;;5.18;100.00;96576.34;5058188;28;20227;-63
2022/11/25 00:06:46;;;;;;;2.73;1.50;;;;;;;5.12;100.00;96582.91;5057628;28;20209;-63
2022/11/25 00:09:13;;;;;;;4.10;1.43;;;;;;;5.09;100.00;96579.66;5058115;28;20211;-63
2022/11/25 00:11:40;;;;;;;3.97;2.10;;;;;;;5.12;100.00;96584.66;5057504;28;20222;-63
2022/11/25 00:14:17;;;;;;;3.07;2.27;;;;;;;5.16;100.00;96591.38;5059174;28;20203;-63
2022/11/25 00:16:45;;;;;;;2.90;2.00;;;;;;;5.11;100.00;96580.38;5064952;28;20222;-63
2022/11/25 00:19:13;;;;;;;2.93;2.40;;;;;;;5.09;100.00;96580.50;5057687;28;20218;-62
2022/11/25 00:21:41;;;;;;;3.30;2.90;;;;;;;5.19;100.00;96581.50;5057216;28;20655;-63
2022/11/25 00:24:09;;;;;;;4.13;2.80;;;;;;;5.21;100.00;96586.63;5069835;28;20202;-63
2022/11/25 00:26:36;;;;;;;3.30;3.00;;;;;;;5.19;100.00;96585.91;5065217;28;20198;-63
2022/11/25 00:29:06;;;;;;;4.50;2.90;;;;;;;5.10;100.00;96592.63;5057748;28;20635;-62
2022/11/25 00:31:38;;;;;;;4.03;2.90;;;;;;;5.10;100.00;96587.38;5060975;28;20300;-63
2022/11/25 00:34:05;;;;;;;4.00;2.67;;;;;;;5.11;100.00;96594.31;5057674;28;20207;-63
2022/11/25 00:36:33;;;;;;;4.40;2.57;;;;;;;5.10;100.00;96597.88;5057604;28;20211;-63
2022/11/25 00:39:04;;;;;;;3.57;2.53;;;;;;;5.09;100.00;96600.63;5057869;28;20199;-63
2022/11/25 00:47:06;;;;;;;2.47;2.27;;;;;;;5.06;100.00;96585.97;5057634;28;20214;-63
2022/11/25 00:49:34;;;;;;;3.73;2.73;;;;;;;5.08;100.00;96589.31;5059206;28;20203;-65
2022/11/25 00:52:01;;;;;;;4.90;2.63;;;;;;;5.12;100.00;96587.28;5057566;28;20585;-64
2022/11/25 00:54:28;;;;;;;3.00;2.70;;;;;;;5.21;100.00;96589.25;5058298;28;20215;-63
2022/11/25 00:56:55;;;;;;;4.10;2.67;;;;;;;5.19;100.00;96593.75;5065993;28;20202;-63
2022/11/25 00:59:22;;;;;;;2.70;2.50;;;;;;;5.27;100.00;96591.44;5060746;28;20606;-63
2022/11/25 01:01:49;;;;;;;3.00;2.70;;;;;;;5.24;100.00;96586.41;5057399;28;20230;-63
2022/11/25 01:04:21;;;;;;;5.00;3.20;;;;;;;5.25;100.00;96602.00;5070407;28;20218;-64
2022/11/25 01:06:47;;;;;;;3.17;2.70;;;;;;;5.22;100.00;96601.41;5060860;28;20203;-65
2022/11/25 01:09:14;;;;;;;3.20;2.90;;;;;;;5.18;100.00;96594.69;5061972;28;20222;-63
2022/11/25 01:11:42;;;;;;;4.07;3.30;;;;;;;5.27;100.00;96599.28;5068057;28;20203;-64
2022/11/25 01:14:09;;;;;;;3.10;2.83;;;;;;;5.18;100.00;96605.19;5061086;28;20217;-64
2022/11/25 01:16:36;;;;;;;9.40;3.10;;;;;;;5.14;100.00;96598.50;5069870;28;20225;-64
2022/11/25 01:19:03;;;;;;;2.83;2.60;;;;;;;5.17;100.00;96603.53;5071234;28;20199;-64
2022/11/25 01:21:35;;;;;;;4.73;2.93;;;;;;;5.13;100.00;96594.22;5056871;28;20206;-64
2022/11/25 01:24:03;;;;;;;4.53;2.67;;;;;;;5.13;100.00;96587.19;5056589;28;20215;-63
2022/11/25 01:26:32;;;;;;;4.03;2.97;;;;;;;5.08;100.00;96588.47;5055557;28;20235;-63
2022/11/25 01:29:02;;;;;;;4.00;3.03;;;;;;;5.16;100.00;96596.63;5072764;28;20192;-62
2022/11/25 01:31:31;;;;;;;5.17;2.83;;;;;;;5.13;100.00;96602.06;5078272;28;20213;-63
2022/11/25 01:34:00;;;;;;;4.17;3.00;;;;;;;5.10;100.00;96603.13;5078460;28;20213;-63
2022/11/25 01:36:29;;;;;;;5.63;2.80;;;;;;;5.08;100.00;96606.81;5076564;28;20218;-62
2022/11/25 01:38:58;;;;;;;3.20;2.73;;;;;;;5.10;100.00;96608.34;5070335;28;20206;-64
2022/11/25 01:41:27;;;;;;;3.20;2.90;;;;;;;5.12;100.00;96611.72;5062059;28;20515;-62
2022/11/25 01:44:12;;;;;;;4.13;3.00;;;;;;;5.13;100.00;96609.94;5057025;28;20215;-63
2022/11/25 01:46:49;;;;;;;3.53;3.00;;;;;;;5.14;100.00;96598.50;5056146;28;20646;-63
2022/11/25 01:49:18;;;;;;;4.23;2.90;;;;;;;5.11;100.00;96598.72;5062754;28;20191;-63
2022/11/25 01:51:51;;;;;;;4.07;2.87;;;;;;;5.12;100.00;96603.84;5066474;28;20229;-64
2022/11/25 01:54:22;;;;;;;4.60;3.20;;;;;;;5.18;100.00;96605.19;5061614;28;20301;-63
2022/11/25 01:56:52;;;;;;;5.63;3.07;;;;;;;5.20;100.00;96596.28;5055888;28;20202;-63
2022/11/25 01:59:19;;;;;;;3.93;2.90;;;;;;;5.16;100.00;96591.38;5055758;28;20209;-64
2022/11/25 02:01:45;;;;;;;3.60;3.30;;;;;;;5.18;100.00;96590.31;5055763;28;20631;-63
2022/11/25 02:04:15;;;;;;;3.93;3.30;;;;;;;5.09;100.00;96585.75;5055660;28;20210;-63
2022/11/25 02:06:46;;;;;;;6.00;3.67;;;;;;;5.18;100.00;96574.56;5063141;28;20226;-63
2022/11/25 02:09:14;;;;;;;3.33;3.03;;;;;;;5.20;100.00;96575.31;5061177;28;20510;-63
2022/11/25 02:11:44;;;;;;;4.33;3.53;;;;;;;5.17;100.00;96574.69;5055576;28;20249;-62
2022/11/25 02:14:12;;;;;;;4.13;3.23;;;;;;;5.20;100.00;96575.31;5055542;28;20211;-63
2022/11/25 02:16:39;;;;;;;6.73;3.77;;;;;;;5.23;100.00;96571.63;5055005;28;20203;-63
2022/11/25 02:19:15;;;;;;;3.90;3.60;;;;;;;5.22;100.00;96576.03;5055512;28;20195;-63
2022/11/25 02:21:47;;;;;;;4.37;3.90;;;;;;;5.28;100.00;96574.75;5055370;28;20210;-63
2022/11/25 02:24:19;;;;;;;3.80;3.40;;;;;;;5.25;100.00;96572.34;5060715;28;20202;-63
2022/11/25 02:26:47;;;;;;;3.40;3.10;;;;;;;5.23;100.00;96561.97;5060786;28;20234;-64
2022/11/25 02:29:15;;;;;;;3.97;3.50;;;;;;;5.24;100.00;96561.03;5059931;28;20539;-62
2022/11/25 02:31:43;;;;;;;4.40;2.90;;;;;;;5.22;100.00;96568.16;5057476;28;20203;-62
2022/11/25 02:34:10;;;;;;;3.57;3.10;;;;;;;5.26;100.00;96571.41;5056325;28;20217;-64
2022/11/25 02:36:38;;;;;;;3.70;3.40;;;;;;;5.26;100.00;96584.50;5055297;28;20207;-64
2022/11/25 02:39:06;;;;;;;3.73;3.20;;;;;;;5.26;100.00;96579.25;5063467;28;20198;-63
2022/11/25 02:41:36;;;;;;;3.97;3.40;;;;;;;5.30;100.00;96581.56;5064531;28;20233;-63
2022/11/25 02:44:07;;;;;;;4.50;3.30;;;;;;;5.35;100.00;96586.47;5055707;28;20218;-64
2022/11/25 02:46:33;;;;;;;5.17;3.73;;;;;;;5.33;100.00;96588.34;5054932;28;20265;-63
2022/11/25 02:49:01;;;;;;;6.37;3.83;;;;;;;5.40;100.00;96589.56;5055100;28;20199;-64
2022/11/25 02:51:30;;;;;;;4.87;4.00;;;;;;;5.41;100.00;96581.59;5062202;28;20198;-63
2022/11/25 02:53:57;;;;;;;4.07;3.43;;;;;;;5.42;100.00;96587.69;5063423;28;20214;-63
2022/11/25 02:56:28;;;;;;;5.40;3.77;;;;;;;5.41;100.00;96591.25;5054946;28;20289;-63
2022/11/25 02:58:55;;;;;;;4.83;4.33;;;;;;;5.50;100.00;96587.94;5054423;28;20214;-64
2022/11/25 03:01:23;;;;;;;6.03;4.03;;;;;;;5.51;100.00;96587.00;5053891;28;20210;-63
2022/11/25 03:03:49;;;;;;;4.53;4.00;;;;;;;5.41;100.00;96578.97;5058622;28;20336;-64
2022/11/25 03:06:16;;;;;;;3.93;3.60;;;;;;;5.47;100.00;96580.31;5054127;28;20230;-63
2022/11/25 03:08:42;;;;;;;5.70;3.93;;;;;;;5.56;100.00;96579.66;5054283;28;20218;-62
2022/11/25 03:11:09;;;;;;;4.10;3.63;;;;;;;5.57;100.00;96575.19;5053941;28;20207;-62
2022/11/25 03:13:36;;;;;;;4.83;3.50;;;;;;;5.57;100.00;96570.78;5057936;28;20663;-63
2022/11/25 03:16:03;;;;;;;3.57;3.33;;;;;;;5.57;100.00;96565.56;5057773;28;20211;-63
2022/11/25 03:18:31;;;;;;;4.20;3.23;;;;;;;5.57;100.00;96564.72;5058285;28;20249;-63
2022/11/25 03:20:57;;;;;;;3.77;3.13;;;;;;;5.58;100.00;96561.16;5057967;28;20203;-62
2022/11/25 03:23:24;;;;;;;4.70;3.20;;;;;;;5.59;100.00;96574.16;5057582;28;20636;-63
2022/11/25 03:25:51;;;;;;;3.17;2.80;;;;;;;5.59;100.00;96568.06;5064184;28;20222;-63
2022/11/25 03:28:17;;;;;;;3.70;2.73;;;;;;;5.62;100.00;96568.69;5067029;28;20282;-63
2022/11/25 03:30:44;;;;;;;3.50;2.93;;;;;;;5.62;100.00;96567.84;5057381;28;20214;-63
2022/11/25 03:33:10;;;;;;;3.80;3.07;;;;;;;5.68;100.00;96565.59;5057567;28;20228;-62
2022/11/25 03:35:40;;;;;;;5.50;3.03;;;;;;;5.69;100.00;96561.19;5057218;28;20246;-63
2022/11/25 03:38:06;;;;;;;5.10;2.90;;;;;;;5.68;100.00;96573.47;5057467;28;20218;-62
2022/11/25 03:40:33;;;;;;;2.80;2.60;;;;;;;5.66;100.00;96583.25;5057206;28;20211;-61
2022/11/25 03:43:01;;;;;;;3.43;2.83;;;;;;;5.68;100.00;96572.63;5059150;28;20198;-63
2022/11/25 03:45:27;;;;;;;3.73;3.10;;;;;;;5.67;100.00;96576.22;5065743;28;20313;-63
2022/11/25 03:47:54;;;;;;;3.13;2.73;;;;;;;5.63;100.00;96575.63;5061395;28;20569;-64
2022/11/25 03:50:20;;;;;;;3.53;2.53;;;;;;;5.73;100.00;96576.59;5057469;28;20219;-63
2022/11/25 03:52:48;;;;;;;3.27;2.97;;;;;;;5.68;100.00;96583.97;5057531;28;20203;-63
2022/11/25 03:55:15;;;;;;;6.07;2.70;;;;;;;5.73;100.00;96583.63;5064884;28;20213;-64
2022/11/25 03:57:42;;;;;;;4.83;3.00;;;;;;;5.70;100.00;96589.09;5061661;28;20234;-63
2022/11/25 04:00:10;;;;;;;5.33;2.80;;;;;;;5.73;100.00;96594.13;5072974;28;20207;-63
2022/11/25 04:02:38;;;;;;;3.43;2.37;;;;;;;5.70;100.00;96587.31;5084171;28;20195;-63
2022/11/25 04:05:09;;;;;;;4.50;2.50;;;;;;;5.72;100.00;96585.41;5087129;28;20182;-63
2022/11/25 04:07:35;;;;;;;3.00;2.80;;;;;;;5.74;100.00;96593.97;5069854;28;20207;-63
2022/11/25 04:10:04;;;;;;;3.07;2.60;;;;;;;5.74;100.00;96583.50;5063082;28;20211;-63
2022/11/25 04:12:48;;;;;;;4.07;2.50;;;;;;;5.75;100.00;96584.31;5058888;28;20217;-63
2022/11/25 04:15:15;;;;;;;3.40;2.60;;;;;;;5.74;100.00;96587.94;5067999;28;20210;-65
2022/11/25 04:17:42;;;;;;;2.93;2.07;;;;;;;5.76;100.00;96592.09;5058959;28;20517;-63
2022/11/25 04:20:10;;;;;;;3.63;2.30;;;;;;;5.82;100.00;96591.63;5058107;28;20230;-63
2022/11/25 04:22:37;;;;;;;4.47;2.23;;;;;;;5.77;100.00;96588.53;5059033;28;20215;-63
2022/11/25 04:25:08;;;;;;;3.00;2.00;;;;;;;5.77;100.00;96593.78;5059454;28;20208;-64
2022/11/25 04:27:35;;;;;;;4.13;2.17;;;;;;;5.80;100.00;96598.78;5061753;28;20211;-62
2022/11/25 04:30:02;;;;;;;2.60;2.23;;;;;;;5.79;100.00;96602.38;5062282;28;20218;-63
2022/11/25 04:32:28;;;;;;;2.90;2.10;;;;;;;5.80;100.00;96598.78;5066595;28;20241;-63
2022/11/25 04:34:56;;;;;;;5.63;2.40;;;;;;;5.80;100.00;96598.78;5066222;28;20235;-64
2022/11/25 04:37:23;;;;;;;2.50;2.00;;;;;;;5.79;100.00;96597.13;5075180;28;20203;-64
2022/11/25 04:39:50;;;;;;;4.50;1.90;;;;;;;5.78;100.00;96605.94;5085978;28;20238;-63
2022/11/25 04:42:36;;;;;;;2.93;1.73;;;;;;;5.80;100.00;96603.19;5080984;28;20297;-64
2022/11/25 04:45:05;;;;;;;3.10;1.90;;;;;;;5.78;100.00;96605.94;5084533;28;20207;-64
2022/11/25 04:47:32;;;;;;;3.77;2.07;;;;;;;5.77;100.00;96609.53;5072557;28;20241;-63
2022/11/25 04:49:59;;;;;;;2.87;2.00;;;;;;;5.77;100.00;96604.28;5093608;28;20199;-63
2022/11/25 04:52:26;;;;;;;2.60;1.73;;;;;;;5.74;100.00;96607.09;5085780;28;20210;-65
2022/11/25 04:54:52;;;;;;;4.63;2.10;;;;;;;5.63;100.00;96601.84;5071542;28;20214;-61
2022/11/25 04:57:21;;;;;;;4.80;1.60;;;;;;;5.64;100.00;96595.63;5079191;28;20227;-64
2022/11/25 04:59:47;;;;;;;1.80;1.70;;;;;;;5.59;100.00;96604.78;5058043;28;20269;-63
2022/11/25 05:02:16;;;;;;;2.80;1.87;;;;;;;5.59;100.00;96605.63;5059231;28;20207;-63
2022/11/25 05:04:44;;;;;;;5.07;2.20;;;;;;;5.62;100.00;96605.41;5056458;28;20211;-63
2022/11/25 05:07:11;;;;;;;3.53;2.00;;;;;;;5.58;100.00;96610.97;5056240;28;20227;-64
2022/11/25 05:09:38;;;;;;;1.90;1.73;;;;;;;5.58;100.00;96603.97;5056881;28;20302;-64
2022/11/25 05:12:05;;;;;;;2.53;1.70;;;;;;;5.58;100.00;96603.13;5056567;28;20635;-63
2022/11/25 05:14:34;;;;;;;3.47;1.83;;;;;;;5.55;100.00;96612.06;5055567;28;20218;-63
2022/11/25 05:17:01;;;;;;;1.90;1.60;;;;;;;5.60;100.00;96603.84;5055408;28;20569;-63
2022/11/25 05:19:28;;;;;;;1.83;1.70;;;;;;;5.62;100.00;96605.41;5055863;28;20206;-63
2022/11/25 05:21:54;;;;;;;1.87;1.50;;;;;;;5.62;100.00;96615.06;5057281;28;20211;-63
2022/11/25 05:24:21;;;;;;;2.33;1.40;;;;;;;5.60;100.00;96624.84;5066779;28;20199;-64
2022/11/25 05:26:48;;;;;;;1.80;1.70;;;;;;;5.58;100.00;96627.56;5059485;28;20218;-64
2022/11/25 05:29:15;;;;;;;4.83;1.67;;;;;;;5.60;100.00;96622.22;5055394;28;20319;-63
2022/11/25 05:31:44;;;;;;;2.10;1.57;;;;;;;5.60;100.00;96619.59;5054993;28;20564;-63
2022/11/25 05:34:11;;;;;;;2.13;1.70;;;;;;;5.62;100.00;96621.16;5054642;28;20203;-63
2022/11/25 05:36:37;;;;;;;1.77;1.67;;;;;;;5.65;100.00;96625.31;5055206;28;20207;-63
2022/11/25 05:39:04;;;;;;;2.50;1.93;;;;;;;5.61;100.00;96624.72;5055091;28;20217;-63
2022/11/25 05:41:31;;;;;;;3.67;1.90;;;;;;;5.61;100.00;96627.34;5068194;28;20203;-63
2022/11/25 05:43:58;;;;;;;4.13;1.73;;;;;;;5.63;100.00;96633.31;5056232;28;20214;-63
2022/11/25 05:46:24;;;;;;;3.43;2.00;;;;;;;5.64;100.00;96631.50;5067183;28;20230;-62
2022/11/25 05:48:54;;;;;;;2.30;2.10;;;;;;;5.68;100.00;96620.69;5056027;28;20199;-64
2022/11/25 05:51:22;;;;;;;2.33;2.10;;;;;;;5.70;100.00;96628.44;5055214;28;20221;-63
2022/11/25 05:53:48;;;;;;;2.10;2.00;;;;;;;5.66;100.00;96627.84;5055781;28;20221;-62
2022/11/25 05:56:15;;;;;;;4.97;2.40;;;;;;;5.69;100.00;96635.47;5055472;28;20202;-63
2022/11/25 05:58:42;;;;;;;2.67;2.03;;;;;;;5.69;100.00;96645.13;5055787;28;20298;-64
2022/11/25 06:01:09;;;;;;;2.53;1.90;;;;;;;5.72;100.00;96652.78;5054660;28;20257;-63
2022/11/25 06:03:37;;;;;;;2.83;1.90;;;;;;;5.68;100.00;96641.66;5057709;28;20210;-63
2022/11/25 06:06:07;;;;;;;2.50;1.93;;;;;;;5.66;100.00;96648.84;5054675;28;20234;-63
2022/11/25 06:08:35;;;;;;;3.13;1.87;;;;;;;5.66;100.00;96643.59;5071582;28;20225;-64
2022/11/25 06:11:04;;;;;;;2.93;1.73;;;;;;;5.65;100.00;96647.16;5055054;28;20217;-63
2022/11/25 06:13:31;;;;;;;1.80;1.70;;;;;;;5.63;100.00;96651.69;5056748;28;20209;-63
2022/11/25 06:15:57;;;;;;;4.20;1.90;;;;;;;5.62;100.00;96652.63;5054867;28;20202;-64
2022/11/25 06:18:24;;;;;;;4.30;2.00;;;;;;;5.60;100.00;96651.88;5058264;28;20211;-63
2022/11/25 06:20:56;;;;;;;5.17;2.27;;;;;;;5.57;100.00;96644.25;5054787;28;20211;-63
2022/11/25 06:23:24;;;;;;;2.20;2.00;;;;;;;5.54;100.00;96649.72;5059076;28;20190;-64
2022/11/25 06:25:52;;;;;;;6.60;2.20;;;;;;;5.55;100.00;96646.16;5054581;28;20268;-64
2022/11/25 06:28:20;;;;;;;3.00;1.90;;;;;;;5.49;100.00;96654.47;5056045;28;20213;-64
2022/11/25 06:30:46;;;;;;;3.30;2.17;;;;;;;5.53;100.00;96651.50;5055727;28;20211;-64
2022/11/25 06:33:13;;;;;;;3.27;2.17;;;;;;;5.49;100.00;96646.63;5056560;28;20203;-64
2022/11/25 06:35:40;;;;;;;4.60;2.80;;;;;;;5.40;100.00;96647.25;5057370;28;20249;-64
2022/11/25 06:38:07;;;;;;;4.40;3.40;;;;;;;5.44;100.00;96648.72;5057672;28;20203;-63
2022/11/25 06:40:35;;;;;;;5.43;3.23;;;;;;;5.37;100.00;96647.50;5066567;28;20505;-63
2022/11/25 06:43:01;;;;;;;5.10;3.70;;;;;;;5.39;100.00;96658.69;5054813;28;20213;-63
2022/11/25 06:45:28;;;;;;;3.90;3.00;;;;;;;5.40;100.00;96657.75;5065837;28;20210;-62
2022/11/25 06:47:54;;;;;;;5.27;2.90;;;;;;;5.35;100.00;96659.88;5058648;28;20227;-63
2022/11/25 06:50:21;;;;;;;4.53;3.20;;;;;;;5.29;100.00;96663.78;5058693;28;20229;-63
2022/11/25 06:52:48;;;;;;;3.90;2.97;;;;;;;5.29;100.00;96666.38;5058166;28;20221;-63
2022/11/25 06:55:15;;;;;;;6.37;3.40;;;;;;;5.27;100.00;96672.69;5058128;28;20554;-63
2022/11/25 06:57:46;;;;;;;3.20;2.90;;;;;;;5.23;100.00;96673.88;5058111;28;20221;-63
2022/11/25 07:00:14;;;;;;;3.07;2.70;;;;;;;5.32;100.00;96681.06;5071501;28;20213;-63
2022/11/25 07:02:41;;;;;;;4.30;2.80;;;;;;;5.34;100.00;96681.81;5070399;28;20199;-62
2022/11/25 07:05:08;;;;;;;5.10;2.70;;;;;;;5.36;100.00;96693.00;5061524;28;20550;-63
2022/11/25 07:07:34;;;;;;;3.47;2.93;;;;;;;5.35;100.00;96688.72;5068262;28;20222;-62
2022/11/25 07:10:00;;;;;;;3.03;2.67;;;;;;;5.25;100.00;96690.31;5066503;28;20199;-63
2022/11/25 07:12:27;;;;;;;2.60;2.37;;;;;;;5.21;100.00;96689.69;5065874;28;20219;-63
2022/11/25 07:14:55;;;;;;;2.70;2.33;;;;;;;5.24;100.00;96697.38;5058057;28;20206;-62
2022/11/25 07:17:23;;;;;;;5.87;3.10;;;;;;;5.18;100.00;96694.31;5057713;28;20305;-62
2022/11/25 07:19:49;;;;;;;3.30;2.70;;;;;;;5.17;100.00;96700.53;5068951;28;20531;-63
2022/11/25 07:22:16;;;;;;;4.07;2.83;;;;;;;5.09;100.00;96705.47;5059937;28;20222;-62
2022/11/25 07:24:43;;;;;;;5.20;2.60;;;;;;;5.16;100.00;96709.31;5066532;28;20202;-64
2022/11/25 07:27:09;;;;;;;4.83;3.37;;;;;;;5.24;100.00;96715.72;5057489;28;20227;-63
2022/11/25 07:29:36;;;;;;;6.63;3.40;;;;;;;5.27;100.00;96722.50;5057824;28;20551;-62
2022/11/25 07:32:05;;;;;;;3.67;3.37;;;;;;;5.22;100.00;96716.75;5057648;28;20207;-63
2022/11/25 07:34:31;;;;;;;4.77;3.37;;;;;;;5.19;100.00;96716.97;5056735;28;20569;-63
2022/11/25 07:36:58;;;;;;;4.10;3.10;;;;;;;5.26;100.00;96720.84;5058482;28;20234;-61
2022/11/25 07:39:24;;;;;;;5.47;3.30;;;;;;;5.21;100.00;96728.19;5057484;28;20210;-62
2022/11/25 07:41:52;;;;;;;5.87;3.30;;;;;;;5.22;100.00;96729.84;5061694;28;20543;-62
2022/11/25 07:44:19;;;;;;;5.10;3.63;;;;;;;5.16;100.00;96722.44;5081885;28;20202;-62
2022/11/25 07:46:47;;;;;;;3.73;3.37;;;;;;;5.22;100.00;96732.47;5077368;28;20531;-63
2022/11/25 07:49:17;;;;;;;5.90;3.50;;;;;;;5.21;100.00;96734.25;5058080;28;20199;-63
2022/11/25 07:51:48;;;;;;;3.97;3.40;;;;;;;5.24;100.00;96735.84;5058183;28;20199;-62
2022/11/25 07:54:15;;;;;;;4.10;3.37;;;;;;;5.33;100.00;96740.44;5057470;28;20207;-63
2022/11/25 07:56:44;;;;;;;6.37;3.53;;;;;;;5.34;100.00;96736.88;5060203;28;20230;-63
2022/11/25 07:59:12;;;;;;;3.57;3.20;;;;;;;5.35;100.00;96734.13;5056403;28;20204;-62
2022/11/25 08:01:39;;;;;;;3.70;3.17;;;;;;;5.35;100.00;96735.94;5057151;28;20206;-64
2022/11/25 08:04:07;;;;;;;3.83;3.30;;;;;;;5.30;100.00;96735.41;5056474;28;20203;-64
2022/11/25 08:06:38;;;;;;;4.17;2.90;;;;;;;5.35;100.00;96736.75;5057077;28;20207;-63
2022/11/25 08:09:05;;;;;;;7.17;2.97;;;;;;;5.41;100.00;96745.97;5057140;28;20199;-63
2022/11/25 08:11:32;;;;;;;3.63;3.30;;;;;;;5.42;100.00;96740.59;5062520;28;20639;-63
2022/11/25 08:13:59;;;;;;;3.40;3.10;;;;;;;5.52;100.00;96746.06;5059291;28;20596;-63
2022/11/25 08:16:28;;;;;;;3.40;3.10;;;;;;;5.66;100.00;96743.28;5057975;28;20217;-62
2022/11/25 08:18:55;;;;;;;3.97;2.77;;;;;;;5.79;100.00;96746.69;5058592;28;20222;-64
2022/11/25 08:21:22;;;;;;;5.20;3.47;;;;;;;5.95;100.00;96755.13;5064179;28;20195;-63
2022/11/25 08:23:51;;;;;;;4.47;3.43;;;;;;;6.12;100.00;96760.94;5073252;28;20209;-65
2022/11/25 08:26:20;;;;;;;3.80;2.90;;;;;;;6.28;100.00;96764.09;5088977;28;20205;-64
2022/11/25 08:28:47;;;;;;;4.90;3.33;;;;;;;6.47;100.00;96769.66;5066842;28;20292;-64
2022/11/25 08:31:15;;;;;;;4.10;3.00;;;;;;;6.53;100.00;96765.72;5068832;28;20217;-63
2022/11/25 08:33:43;;;;;;;4.90;3.07;;;;;;;6.62;100.00;96776.41;5081976;28;20194;-64
2022/11/25 08:36:11;;;;;;;4.33;3.50;;;;;;;6.69;100.00;96780.25;5069663;28;20250;-63
2022/11/25 08:38:38;;;;;;;6.57;3.47;;;;;;;6.78;100.00;96784.78;5063816;28;20194;-62
2022/11/25 08:41:11;;;;;;;3.53;2.87;;;;;;;6.86;100.00;96779.81;5061165;28;20627;-64
2022/11/25 08:43:37;;;;;;;5.13;3.90;;;;;;;6.92;100.00;96784.59;5061050;28;20195;-64
2022/11/25 08:46:08;;;;;;;4.33;3.67;;;;;;;6.96;100.00;96786.03;5064890;28;20225;-64
2022/11/25 08:48:35;;;;;;;4.53;3.43;;;;;;;7.06;100.00;96790.56;5066299;28;20618;-63
2022/11/25 08:51:02;;;;;;;6.43;4.70;;;;;;;7.11;100.00;96789.28;5056492;28;20199;-64
2022/11/25 08:53:31;;;;;;;4.80;4.27;;;;;;;7.14;100.00;96794.28;5060837;28;20546;-63
2022/11/25 08:55:57;;;;;;;4.63;3.87;;;;;;;7.13;100.00;96791.78;5074406;28;20199;-64
2022/11/25 08:58:25;;;;;;;6.53;4.10;;;;;;;7.19;100.00;96796.56;5061101;28;20241;-64
2022/11/25 09:00:52;;;;;;;5.07;4.43;;;;;;;7.24;100.00;96795.25;5067616;28;20195;-64
2022/11/25 09:03:19;;;;;;;4.93;4.30;;;;;;;7.29;100.00;96798.38;5063279;28;20214;-64
2022/11/25 09:05:45;;;;;;;4.43;4.03;;;;;;;7.28;100.00;96799.31;5060462;28;20508;-62
2022/11/25 09:08:12;;;;;;;4.47;4.07;;;;;;;7.29;100.00;96801.00;5061456;28;20223;-64
2022/11/25 09:10:39;;;;;;;4.73;4.10;;;;;;;7.30;100.00;96804.44;5061376;28;20225;-63
2022/11/25 09:13:09;;;;;;;5.33;4.30;;;;;;;7.37;100.00;96811.75;5058069;28;20296;-64
2022/11/25 09:15:37;;;;;;;7.90;4.57;;;;;;;7.40;100.00;96815.97;5063236;28;20211;-63
2022/11/25 09:18:06;;;;;;;5.70;4.50;;;;;;;7.51;100.00;96819.41;5063379;28;20643;-64
2022/11/25 09:20:34;;;;;;;4.20;3.80;;;;;;;7.57;100.00;96826.00;5061077;28;20211;-64
2022/11/25 09:23:01;;;;;;;7.90;4.20;;;;;;;7.62;100.00;96829.09;5057653;28;20218;-64
2022/11/25 09:25:27;;;;;;;5.60;4.13;;;;;;;7.60;100.00;96838.91;5058395;28;20536;-64
2022/11/25 09:27:55;;;;;;;4.60;4.03;;;;;;;7.66;100.00;96846.31;5068374;28;20563;-64
2022/11/25 09:30:22;;;;;;;8.73;4.80;;;;;;;7.62;100.00;96852.78;5056119;28;20209;-64
2022/11/25 09:32:52;;;;;;;5.50;4.93;;;;;;;7.66;100.00;96834.94;5058050;28;20214;-63
2022/11/25 09:35:19;;;;;;;7.40;4.60;;;;;;;7.74;100.00;96846.56;5063537;28;20234;-64
2022/11/25 09:37:46;;;;;;;10.93;4.90;;;;;;;7.80;100.00;96855.75;5069011;28;20206;-64
2022/11/25 09:40:18;;;;;;;6.97;4.30;;;;;;;7.86;100.00;96850.88;5065377;28;20203;-63
2022/11/25 09:48:37;;;;;;;4.63;3.70;;;;;;;8.10;100.00;96860.41;5062849;28;20298;-64
2022/11/25 09:51:11;;;;;;;6.07;4.03;;;;;;;8.12;100.00;96850.56;5062680;28;20203;-64
2022/11/25 09:53:43;;;;;;;4.73;3.50;;;;;;;8.17;100.00;96853.69;5062265;28;20216;-64
2022/11/25 09:56:15;;;;;;;4.33;3.63;;;;;;;8.20;100.00;96867.44;5061207;28;20200;-64
2022/11/25 09:58:48;;;;;;;5.67;5.07;;;;;;;8.27;100.00;96871.25;5061992;28;20703;-64
2022/11/25 10:01:18;;;;;;;6.83;4.93;;;;;;;8.33;100.00;96876.06;5058478;28;20214;-64
2022/11/25 10:03:47;;;;;;;5.90;4.63;;;;;;;8.38;100.00;96871.28;5071164;28;20195;-64
2022/11/25 10:06:17;;;;;;;6.67;4.07;;;;;;;8.32;100.00;96868.31;5059935;28;20214;-64
2022/11/25 10:08:45;;;;;;;4.37;3.90;;;;;;;8.32;100.00;96870.94;5064582;28;20231;-64
2022/11/25 10:11:19;;;;;;;8.53;4.33;;;;;;;8.35;100.00;96873.31;5070471;28;20210;-63
2022/11/25 10:13:51;;;;;;;5.70;4.37;;;;;;;8.26;100.00;96871.38;5069981;28;20235;-64
2022/11/25 10:16:27;;;;;;;6.57;4.23;;;;;;;8.29;100.00;96868.56;5068884;28;20195;-64
2022/11/25 10:19:00;;;;;;;6.33;4.20;;;;;;;8.32;100.00;96874.41;5073423;28;20186;-65
2022/11/25 10:21:27;;;;;;;8.70;4.57;;;;;;;8.38;100.00;96873.06;5081254;28;20203;-64
2022/11/25 10:23:54;;;;;;;6.47;3.90;;;;;;;8.35;100.00;96870.69;5083624;28;20191;-64
2022/11/25 10:26:23;;;;;;;7.07;3.90;;;;;;;8.34;100.00;96872.47;5076748;28;20199;-65
2022/11/25 10:28:54;;;;;;;6.67;3.97;;;;;;;8.29;100.00;96868.56;5079392;28;20593;-64
2022/11/25 10:31:25;;;;;;;9.70;4.70;;;;;;;8.37;100.00;96876.66;5056666;28;20294;-64
2022/11/25 10:33:57;;;;;;;6.97;4.57;;;;;;;8.33;100.00;96876.06;5063719;28;20199;-64
2022/11/25 10:36:26;;;;;;;8.07;4.60;;;;;;;8.36;100.00;96875.00;5057225;28;20261;-64
2022/11/25 10:38:57;;;;;;;8.37;4.80;;;;;;;8.38;100.00;96873.91;5058785;28;20642;-64
2022/11/25 10:41:24;;;;;;;6.20;4.43;;;;;;;8.36;100.00;96861.81;5063720;28;20512;-65
2022/11/25 10:43:51;;;;;;;10.53;4.60;;;;;;;8.36;100.00;96854.72;5063044;28;20198;-65
2022/11/25 10:46:25;;;;;;;7.77;4.63;;;;;;;8.36;100.00;96843.38;5058657;28;20203;-64
2022/11/25 10:49:00;;;;;;;7.67;4.80;;;;;;;8.35;100.00;96846.97;5062806;28;20211;-64
2022/11/25 10:51:36;;;;;;;6.63;4.40;;;;;;;8.39;100.00;96840.50;5054092;28;20675;-65
2022/11/25 10:54:10;;;;;;;6.07;4.20;;;;;;;8.42;100.00;96838.44;5067397;28;20198;-63
2022/11/25 10:56:44;;;;;;;9.70;5.00;;;;;;;8.50;100.00;96825.47;5055557;28;20206;-64
2022/11/25 10:59:21;;;;;;;5.00;3.97;;;;;;;8.57;100.00;96825.81;5058921;28;20210;-65
2022/11/25 11:01:48;;;;;;;6.07;3.83;;;;;;;8.65;100.00;96823.34;5054734;28;20369;-64
2022/11/25 11:04:17;;;;;;;5.43;3.30;;;;;;;8.71;100.00;96814.97;5055397;28;20306;-65
2022/11/25 11:06:45;;;;;;;4.43;2.80;;;;;;;8.80;100.00;96821.25;5061324;28;20547;-65
2022/11/25 11:09:32;;;;;;;3.57;2.70;;;;;;;8.90;100.00;96825.63;5058254;28;20234;-64
2022/11/25 11:12:08;;;;;;;5.50;2.90;;;;;;;8.99;100.00;96827.53;5068516;28;20198;-62
2022/11/25 11:14:36;;;;;;;6.33;3.03;;;;;;;9.09;100.00;96821.47;5060922;28;20207;-64
2022/11/25 11:17:03;;;;;;;4.17;2.77;;;;;;;9.17;100.00;96816.38;5058622;28;20215;-63
2022/11/25 11:19:31;;;;;;;4.10;2.70;;;;;;;9.16;100.00;96818.19;5057680;28;20196;-64
2022/11/25 11:22:15;;;;;;;6.30;2.93;;;;;;;9.22;100.00;96808.88;5064608;28;20211;-64
2022/11/25 11:24:41;;;;;;;4.00;2.63;;;;;;;9.25;100.00;96805.97;5072054;28;20210;-63
2022/11/25 11:27:22;;;;;;;3.70;2.50;;;;;;;9.32;100.00;96801.84;5081595;28;20224;-64
2022/11/25 11:29:49;;;;;;;5.83;2.90;;;;;;;9.37;100.00;96802.31;5072921;28;20205;-65
2022/11/25 11:32:22;;;;;;;4.23;2.47;;;;;;;9.44;100.00;96795.53;5060639;28;20211;-64
2022/11/25 11:34:57;;;;;;;6.03;3.20;;;;;;;9.47;100.00;96790.00;5059854;28;20257;-64
2022/11/25 11:37:35;;;;;;;4.93;2.83;;;;;;;9.53;100.00;96789.44;5066540;28;20214;-62
2022/11/25 11:40:15;;;;;;;2.80;2.43;;;;;;;9.59;100.00;96794.22;5057935;28;20203;-63
2022/11/25 11:42:51;;;;;;;5.57;2.73;;;;;;;9.63;100.00;96800.91;5070358;28;20209;-64
2022/11/25 11:45:31;;;;;;;5.63;2.40;;;;;;;9.64;100.00;96802.56;5064747;28;20211;-63
2022/11/25 11:48:05;;;;;;;5.30;2.23;;;;;;;9.68;100.00;96793.41;5062056;28;20559;-63
2022/11/25 11:50:34;;;;;;;5.07;2.80;;;;;;;9.73;100.00;96793.00;5070433;28;20199;-64
2022/11/25 11:53:06;;;;;;;2.27;2.07;;;;;;;9.74;100.00;96797.34;5083888;28;20210;-64